createdAt,value
2022-11-16T00:00:27.142Z,118.95
2022-11-16T00:02:53.772Z,115.57
2022-11-16T00:05:24.211Z,126.10
2022-11-16T00:07:53.660Z,119.10
2022-11-16T00:10:20.340Z,109.82
2022-11-16T00:12:47.249Z,100.38
2022-11-16T00:15:15.425Z,119.97
2022-11-16T00:17:42.014Z,104.60
2022-11-16T00:20:10.036Z,118.55
2022-11-16T00:22:36.613Z,86.57
2022-11-16T00:25:03.394Z,106.63
2022-11-16T00:27:30.113Z,107.70
2022-11-16T00:29:56.690Z,100.43
2022-11-16T00:32:24.613Z,153.05
2022-11-16T00:34:51.291Z,104.18
2022-11-16T00:37:17.910Z,104.07
2022-11-16T00:39:44.517Z,107.38
2022-11-16T00:42:11.081Z,131.85
2022-11-16T00:44:37.752Z,114.85
2022-11-16T00:47:04.754Z,106.90
2022-11-16T00:49:32.781Z,126.95
2022-11-16T00:51:59.422Z,122.53
2022-11-16T00:54:26.118Z,134.45
2022-11-16T00:56:52.704Z,89.28
2022-11-16T00:59:19.315Z,93.00
2022-11-16T01:01:46.024Z,139.35
2022-11-16T01:04:12.589Z,115.60
2022-11-16T01:06:40.593Z,145.43
2022-11-16T01:09:07.222Z,133.02
2022-11-16T01:11:33.893Z,129.55
2022-11-16T01:14:02.058Z,121.88
2022-11-16T01:16:28.801Z,89.43
2022-11-16T01:18:55.583Z,110.20
2022-11-16T01:21:23.226Z,100.50
2022-11-16T01:23:51.726Z,90.40
2022-11-16T01:26:18.581Z,100.72
2022-11-16T01:28:45.298Z,102.18
2022-11-16T01:31:12.054Z,112.78
2022-11-16T01:33:39.073Z,92.78
2022-11-16T01:36:09.874Z,100.80
2022-11-16T01:38:36.757Z,93.53
2022-11-16T01:41:05.004Z,89.35
2022-11-16T01:43:50.293Z,107.95
2022-11-16T01:46:16.958Z,107.13
2022-11-16T01:48:43.930Z,101.10
2022-11-16T01:51:11.050Z,91.82
2022-11-16T01:53:37.804Z,105.80
2022-11-16T01:56:06.417Z,81.57
2022-11-16T01:58:33.175Z,88.88
2022-11-16T02:01:00.203Z,97.82
2022-11-16T02:03:27.013Z,88.82
2022-11-16T02:06:14.957Z,75.13
2022-11-16T02:08:49.146Z,85.18
2022-11-16T02:11:50.089Z,80.68
2022-11-16T02:14:33.005Z,89.60
2022-11-16T02:17:05.837Z,94.53
2022-11-16T02:20:02.500Z,89.28
2022-11-16T02:22:42.704Z,80.43
2022-11-16T02:25:17.238Z,87.70
2022-11-16T02:28:16.508Z,90.03
2022-11-16T02:30:49.443Z,89.25
2022-11-16T02:33:20.332Z,80.20
2022-11-16T02:35:50.018Z,85.53
2022-11-16T02:38:23.337Z,80.47
2022-11-16T02:40:53.601Z,85.00
2022-11-16T02:43:24.669Z,82.40
2022-11-16T02:45:57.836Z,79.97
2022-11-16T02:48:29.297Z,85.68
2022-11-16T02:50:56.149Z,86.53
2022-11-16T02:53:24.346Z,90.95
2022-11-16T02:55:51.383Z,83.15
2022-11-16T02:58:21.178Z,93.18
2022-11-16T03:00:57.487Z,90.97
2022-11-16T03:03:32.318Z,91.00
2022-11-16T03:06:03.219Z,89.13
2022-11-16T03:08:33.436Z,95.55
2022-11-16T03:11:04.734Z,98.05
2022-11-16T03:13:34.163Z,79.07
2022-11-16T03:16:07.470Z,76.22
2022-11-16T03:18:34.799Z,72.28
2022-11-16T03:21:09.465Z,81.13
2022-11-16T03:23:36.370Z,84.75
2022-11-16T03:26:07.093Z,97.30
2022-11-16T03:28:36.976Z,90.38
2022-11-16T03:31:11.181Z,79.78
2022-11-16T03:33:42.933Z,90.30
2022-11-16T03:36:15.156Z,102.53
2022-11-16T03:38:44.143Z,119.63
2022-11-16T03:41:12.083Z,118.47
2022-11-16T03:43:41.598Z,96.32
2022-11-16T03:46:10.122Z,108.68
2022-11-16T03:48:38.765Z,113.20
2022-11-16T03:51:07.993Z,97.47
2022-11-16T03:53:34.630Z,91.72
2022-11-16T03:56:01.363Z,123.45
2022-11-16T03:58:28.278Z,115.00
2022-11-16T04:00:55.127Z,94.90
2022-11-16T04:03:23.170Z,119.68
2022-11-16T04:05:50.012Z,102.82
2022-11-16T04:08:17.644Z,110.85
2022-11-16T04:10:44.539Z,112.20
2022-11-16T04:13:13.354Z,104.07
2022-11-16T04:15:40.039Z,104.55
2022-11-16T04:18:09.800Z,116.15
2022-11-16T04:20:37.831Z,113.07
2022-11-16T04:23:07.848Z,104.35
2022-11-16T04:25:38.097Z,116.35
2022-11-16T04:28:05.607Z,96.97
2022-11-16T04:30:32.458Z,97.75
2022-11-16T04:32:59.094Z,106.20
2022-11-16T04:35:25.910Z,104.63
2022-11-16T04:37:56.682Z,100.05
2022-11-16T04:40:25.899Z,124.07
2022-11-16T04:42:52.758Z,121.50
2022-11-16T04:45:19.535Z,109.25
2022-11-16T04:47:48.381Z,120.93
2022-11-16T04:50:15.135Z,102.50
2022-11-16T04:52:41.724Z,116.40
2022-11-16T04:55:10.325Z,119.00
2022-11-16T04:57:36.907Z,115.30
2022-11-16T05:00:04.223Z,136.70
2022-11-16T05:02:30.866Z,109.57
2022-11-16T05:04:57.584Z,120.00
2022-11-16T05:07:24.268Z,110.55
2022-11-16T05:09:50.958Z,122.53
2022-11-16T05:12:21.079Z,124.75
2022-11-16T05:14:47.829Z,125.07
2022-11-16T05:17:16.212Z,119.72
2022-11-16T05:19:42.897Z,145.18
2022-11-16T05:22:09.545Z,131.80
2022-11-16T05:24:36.259Z,130.73
2022-11-16T05:27:04.779Z,133.63
2022-11-16T05:29:33.261Z,135.02
2022-11-16T05:32:00.202Z,125.28
2022-11-16T05:34:26.822Z,139.52
2022-11-16T05:36:53.582Z,133.52
2022-11-16T05:39:20.486Z,136.52
2022-11-16T05:41:47.532Z,122.72
2022-11-16T05:44:14.833Z,135.40
2022-11-16T05:46:43.818Z,145.23
2022-11-16T05:49:10.937Z,139.25
2022-11-16T05:51:39.316Z,134.68
2022-11-16T05:54:06.601Z,138.20
2022-11-16T05:56:34.786Z,150.15
2022-11-16T05:59:01.441Z,141.90
2022-11-16T06:01:28.205Z,139.32
2022-11-16T06:03:58.597Z,137.02
2022-11-16T06:06:25.168Z,138.75
2022-11-16T06:08:51.834Z,144.80
2022-11-16T06:11:18.520Z,142.73
2022-11-16T06:13:45.092Z,155.40
2022-11-16T06:16:12.529Z,142.10
2022-11-16T06:18:41.043Z,140.02
2022-11-16T06:21:09.980Z,164.88
2022-11-16T06:23:36.638Z,152.80
2022-11-16T06:26:03.736Z,152.65
2022-11-16T06:28:30.534Z,143.43
2022-11-16T06:30:57.245Z,145.80
2022-11-16T06:33:24.382Z,138.45
2022-11-16T06:35:50.991Z,157.93
2022-11-16T06:38:19.267Z,135.85
2022-11-16T06:40:46.206Z,143.43
2022-11-16T06:43:12.822Z,155.65
2022-11-16T06:45:39.537Z,149.98
2022-11-16T06:48:06.266Z,151.05
2022-11-16T06:50:32.955Z,158.70
2022-11-16T06:52:59.667Z,149.55
2022-11-16T06:55:28.018Z,143.77
2022-11-16T06:57:54.609Z,144.23
2022-11-16T07:00:21.467Z,151.85
2022-11-16T07:02:48.131Z,141.57
2022-11-16T07:05:14.909Z,146.63
2022-11-16T07:07:41.481Z,155.82
2022-11-16T07:10:09.105Z,140.90
2022-11-16T07:12:37.106Z,132.90
2022-11-16T07:15:04.113Z,143.10
2022-11-16T07:17:31.136Z,165.18
2022-11-16T07:19:57.722Z,171.98
2022-11-16T07:22:24.377Z,173.68
2022-11-16T07:24:50.956Z,166.70
2022-11-16T07:27:17.526Z,167.52
2022-11-16T07:29:45.589Z,150.35
2022-11-16T07:32:12.273Z,192.43
2022-11-16T07:34:38.830Z,148.07
2022-11-16T07:37:05.543Z,171.85
2022-11-16T07:39:32.112Z,162.52
2022-11-16T07:41:58.805Z,152.57
2022-11-16T07:44:25.353Z,175.50
2022-11-16T07:46:53.346Z,158.80
2022-11-16T07:49:20.074Z,170.68
2022-11-16T07:51:46.740Z,186.68
2022-11-16T07:54:13.780Z,196.40
2022-11-16T07:56:40.951Z,170.02
2022-11-16T07:59:07.686Z,173.05
2022-11-16T08:01:34.977Z,162.98
2022-11-16T08:04:02.992Z,151.35
2022-11-16T08:06:31.127Z,166.63
2022-11-16T08:08:59.083Z,164.38
2022-11-16T08:11:25.760Z,183.38
2022-11-16T08:13:52.393Z,167.07
2022-11-16T08:16:20.793Z,165.55
2022-11-16T08:18:47.814Z,179.57
2022-11-16T08:21:17.482Z,165.50
2022-11-16T08:23:44.709Z,187.43
2022-11-16T08:26:13.661Z,180.35
2022-11-16T08:28:40.878Z,195.80
2022-11-16T08:31:08.918Z,193.13
2022-11-16T08:33:35.491Z,194.95
2022-11-16T08:36:03.824Z,205.05
2022-11-16T08:38:31.970Z,201.73
2022-11-16T08:40:59.093Z,198.48
2022-11-16T08:43:25.772Z,180.25
2022-11-16T08:45:52.704Z,192.50
2022-11-16T08:48:19.753Z,165.77
2022-11-16T08:51:15.512Z,172.80
2022-11-16T08:53:34.380Z,163.27
2022-11-16T08:56:04.842Z,166.15
2022-11-16T08:58:31.667Z,164.38
2022-11-16T09:00:58.587Z,150.40
2022-11-16T09:03:25.219Z,149.65
2022-11-16T09:05:52.355Z,140.77
2022-11-16T09:08:18.965Z,140.57
2022-11-16T09:10:46.935Z,138.43
2022-11-16T09:13:13.636Z,135.52
2022-11-16T09:15:40.242Z,126.38
2022-11-16T09:18:06.901Z,123.82
2022-11-16T09:20:33.508Z,126.32
2022-11-16T09:23:00.055Z,114.72
2022-11-16T09:25:26.623Z,112.45
2022-11-16T09:27:55.836Z,105.35
2022-11-16T09:30:22.581Z,105.57
2022-11-16T09:32:49.133Z,102.95
2022-11-16T09:35:15.944Z,85.47
2022-11-16T09:37:42.586Z,103.15
2022-11-16T09:40:10.071Z,95.70
2022-11-16T09:42:48.651Z,97.18
2022-11-16T09:45:24.747Z,93.25
2022-11-16T09:47:55.163Z,94.57
2022-11-16T09:50:31.612Z,87.72
2022-11-16T09:53:04.972Z,81.68
2022-11-16T09:55:36.982Z,77.05
2022-11-16T09:58:13.656Z,70.22
2022-11-16T10:00:47.316Z,65.97
2022-11-16T10:03:15.180Z,61.08
2022-11-16T10:05:48.693Z,63.42
2022-11-16T10:10:54.692Z,48.58
2022-11-16T10:13:35.293Z,48.00
2022-11-16T10:16:12.809Z,44.67
2022-11-16T10:18:51.389Z,47.85
2022-11-16T10:21:33.287Z,44.25
2022-11-16T10:24:31.633Z,46.03
2022-11-16T10:27:11.830Z,50.78
2022-11-16T10:29:48.622Z,47.42
2022-11-16T10:32:22.654Z,46.28
2022-11-16T10:34:52.396Z,42.72
2022-11-16T10:37:19.531Z,46.50
2022-11-16T10:39:49.186Z,55.17
2022-11-16T10:42:19.629Z,45.00
2022-11-16T10:44:50.401Z,46.65
2022-11-16T10:47:23.530Z,49.22
2022-11-16T10:49:56.227Z,54.00
2022-11-16T10:52:24.239Z,47.22
2022-11-16T10:54:51.211Z,48.50
2022-11-16T10:57:18.136Z,46.45
2022-11-16T10:59:46.470Z,45.47
2022-11-16T11:02:31.236Z,46.13
2022-11-16T11:05:16.648Z,48.30
2022-11-16T11:07:49.146Z,40.55
2022-11-16T11:10:30.006Z,45.55
2022-11-16T11:13:20.697Z,49.28
2022-11-16T11:15:47.516Z,45.60
2022-11-16T11:18:25.338Z,47.72
2022-11-16T11:21:06.532Z,50.13
2022-11-16T11:23:41.668Z,51.35
2022-11-16T11:26:22.479Z,51.30
2022-11-16T11:28:49.901Z,49.42
2022-11-16T11:31:20.786Z,51.13
2022-11-16T11:33:52.067Z,44.08
2022-11-16T11:36:21.133Z,48.10
2022-11-16T11:39:00.229Z,49.00
2022-11-16T11:41:32.721Z,47.08
2022-11-16T11:44:03.313Z,45.40
2022-11-16T11:47:18.198Z,45.47
2022-11-16T11:49:33.652Z,46.50
2022-11-16T11:52:05.063Z,45.47
2022-11-16T11:54:35.736Z,46.28
2022-11-16T11:57:04.445Z,50.30
2022-11-16T11:59:31.096Z,48.42
2022-11-16T12:02:18.697Z,46.50
2022-11-16T12:05:15.702Z,59.05
2022-11-16T12:08:13.231Z,50.92
2022-11-16T12:10:47.582Z,54.05
2022-11-16T12:13:50.196Z,53.00
2022-11-16T12:16:26.788Z,50.72
2022-11-16T12:19:12.323Z,58.22
2022-11-16T12:21:52.029Z,56.90
2022-11-16T12:24:35.434Z,50.97
2022-11-16T12:27:14.766Z,57.97
2022-11-16T12:29:48.519Z,58.95
2022-11-16T12:32:32.339Z,53.95
2022-11-16T12:35:14.823Z,60.72
2022-11-16T12:37:48.707Z,58.80
2022-11-16T12:40:36.294Z,60.08
2022-11-16T12:43:15.490Z,59.05
2022-11-16T12:46:02.199Z,61.33
2022-11-16T12:48:46.239Z,58.90
2022-11-16T12:51:27.458Z,55.10
2022-11-16T12:54:15.541Z,55.90
2022-11-16T12:56:52.106Z,56.30
2022-11-16T12:59:35.305Z,53.33
2022-11-16T13:02:09.434Z,65.63
2022-11-16T13:04:40.800Z,56.80
2022-11-16T13:07:12.351Z,51.00
2022-11-16T13:09:46.258Z,49.60
2022-11-16T13:12:16.638Z,52.15
2022-11-16T13:14:46.913Z,49.80
2022-11-16T13:17:19.440Z,49.30
2022-11-16T13:20:08.979Z,50.80
2022-11-16T13:22:40.774Z,48.13
2022-11-16T13:25:18.238Z,48.13
2022-11-16T13:27:49.810Z,44.78
2022-11-16T13:30:19.098Z,43.40
2022-11-16T13:33:03.070Z,45.22
2022-11-16T13:35:30.118Z,46.25
2022-11-16T13:37:56.914Z,45.40
2022-11-16T13:40:30.184Z,48.67
2022-11-16T13:43:18.609Z,47.85
2022-11-16T13:45:54.282Z,48.70
2022-11-16T13:48:24.274Z,45.55
2022-11-16T13:50:53.926Z,48.40
2022-11-16T13:56:21.857Z,41.58
2022-11-16T13:58:53.219Z,35.88
2022-11-16T14:01:19.857Z,40.65
2022-11-16T14:03:48.830Z,33.53
2022-11-16T14:06:53.738Z,38.78
2022-11-16T14:09:44.720Z,31.23
2022-11-16T14:12:55.710Z,34.22
2022-11-16T14:15:28.760Z,37.50
2022-11-16T14:17:58.907Z,32.92
2022-11-16T14:20:54.636Z,33.22
2022-11-16T14:23:50.619Z,31.17
2022-11-16T14:26:23.053Z,31.77
2022-11-16T14:29:23.980Z,31.90
2022-11-16T14:31:54.311Z,29.10
2022-11-16T14:34:24.967Z,41.17
2022-11-16T14:36:52.606Z,33.00
2022-11-16T14:39:30.265Z,37.50
2022-11-16T14:42:00.572Z,36.17
2022-11-16T14:44:31.994Z,32.85
2022-11-16T14:47:02.595Z,37.42
2022-11-16T14:49:33.343Z,39.22
2022-11-16T14:52:02.965Z,36.78
2022-11-16T14:54:34.885Z,42.58
2022-11-16T14:57:03.728Z,35.22
2022-11-16T14:59:31.524Z,40.42
2022-11-16T15:02:04.793Z,36.78
2022-11-16T15:04:31.717Z,42.75
2022-11-16T15:07:02.359Z,38.63
2022-11-16T15:09:31.099Z,43.92
2022-11-16T15:12:01.152Z,39.67
2022-11-16T15:14:31.827Z,43.35
2022-11-16T15:16:59.853Z,40.75
2022-11-16T15:19:30.768Z,40.00
2022-11-16T15:21:59.477Z,46.03
2022-11-16T15:24:32.043Z,41.47
2022-11-16T15:27:10.470Z,41.53
2022-11-16T15:29:37.342Z,39.97
2022-11-16T15:32:04.810Z,45.80
2022-11-16T15:34:32.928Z,39.78
2022-11-16T15:36:59.594Z,44.33
2022-11-16T15:39:32.755Z,42.33
2022-11-16T15:42:03.720Z,47.25
2022-11-16T15:44:31.923Z,37.78
2022-11-16T15:46:59.357Z,44.75
2022-11-16T15:49:29.665Z,41.90
2022-11-16T15:51:59.249Z,38.05
2022-11-16T15:54:27.658Z,38.47
2022-11-16T15:56:56.027Z,35.88
2022-11-16T15:59:27.399Z,36.67
2022-11-16T16:01:54.669Z,36.17
2022-11-16T16:04:22.165Z,36.03
2022-11-16T16:06:50.478Z,33.08
2022-11-16T16:09:25.291Z,30.45
2022-11-16T16:11:52.286Z,29.10
2022-11-16T16:14:23.841Z,26.63
2022-11-16T16:16:51.352Z,31.05
2022-11-16T16:19:38.576Z,30.85
2022-11-16T16:22:12.119Z,26.83
2022-11-16T16:24:42.748Z,30.48
2022-11-16T16:27:12.339Z,33.95
2022-11-16T16:29:39.231Z,29.95
2022-11-16T16:32:07.853Z,27.85
2022-11-16T16:34:37.863Z,28.45
2022-11-16T16:37:10.585Z,26.58
2022-11-16T16:39:37.371Z,26.30
2022-11-16T16:42:06.073Z,24.90
2022-11-16T16:44:32.705Z,29.08
2022-11-16T16:46:59.400Z,24.35
2022-11-16T16:49:26.100Z,24.77
2022-11-16T16:51:52.782Z,24.65
2022-11-16T16:54:19.428Z,23.63
2022-11-16T16:56:46.146Z,29.58
2022-11-16T16:59:14.189Z,27.05
2022-11-16T17:01:41.240Z,24.05
2022-11-16T17:04:07.877Z,27.25
2022-11-16T17:06:34.853Z,32.35
2022-11-16T17:09:01.616Z,24.80
2022-11-16T17:11:28.445Z,31.20
2022-11-16T17:13:55.205Z,31.10
2022-11-16T17:16:23.199Z,29.75
2022-11-16T17:18:54.506Z,26.52
2022-11-16T17:21:21.300Z,29.35
2022-11-16T17:23:48.002Z,33.13
2022-11-16T17:26:14.640Z,25.00
2022-11-16T17:28:41.386Z,27.42
2022-11-16T17:31:10.026Z,26.15
2022-11-16T17:33:39.563Z,34.22
2022-11-16T17:36:08.286Z,25.77
2022-11-16T17:38:35.329Z,29.13
2022-11-16T17:41:05.913Z,24.70
2022-11-16T17:43:33.098Z,25.77
2022-11-16T17:46:05.367Z,26.83
2022-11-16T17:48:32.013Z,26.23
2022-11-16T17:51:00.173Z,31.92
2022-11-16T17:53:32.486Z,23.70
2022-11-16T17:55:59.652Z,26.27
2022-11-16T17:58:27.973Z,25.80
2022-11-16T18:00:54.995Z,29.70
2022-11-16T18:03:21.922Z,25.85
2022-11-16T18:05:48.608Z,28.13
2022-11-16T18:08:16.592Z,28.90
2022-11-16T18:10:43.282Z,24.83
2022-11-16T18:13:09.929Z,23.15
2022-11-16T18:15:42.195Z,19.65
2022-11-16T18:18:09.383Z,20.02
2022-11-16T18:20:37.254Z,21.25
2022-11-16T18:23:04.115Z,22.67
2022-11-16T18:25:34.003Z,23.45
2022-11-16T18:28:00.620Z,17.83
2022-11-16T18:30:27.255Z,20.48
2022-11-16T18:32:54.321Z,20.42
2022-11-16T18:35:20.920Z,17.35
2022-11-16T18:37:47.786Z,20.17
2022-11-16T18:40:14.645Z,19.15
2022-11-16T18:42:42.745Z,24.10
2022-11-16T18:45:09.963Z,15.70
2022-11-16T18:47:36.525Z,23.33
2022-11-16T18:50:03.752Z,16.52
2022-11-16T18:52:30.319Z,18.95
2022-11-16T18:54:56.913Z,21.80
2022-11-16T18:57:23.541Z,18.90
2022-11-16T18:59:51.571Z,19.25
2022-11-16T19:02:18.352Z,17.83
2022-11-16T19:04:44.937Z,19.52
2022-11-16T19:07:11.691Z,18.00
2022-11-16T19:09:38.442Z,19.55
2022-11-16T19:12:05.296Z,16.48
2022-11-16T19:14:32.069Z,17.63
2022-11-16T19:17:00.017Z,19.15
2022-11-16T19:19:26.824Z,14.70
2022-11-16T19:21:53.433Z,15.60
2022-11-16T19:24:20.083Z,18.98
2022-11-16T19:26:46.852Z,15.85
2022-11-16T19:29:13.539Z,15.20
2022-11-16T19:31:40.257Z,12.32
2022-11-16T19:34:11.692Z,15.68
2022-11-16T19:36:38.413Z,12.85
2022-11-16T19:39:05.820Z,13.75
2022-11-16T19:41:32.597Z,16.83
2022-11-16T19:44:00.289Z,14.70
2022-11-16T19:46:28.717Z,12.60
2022-11-16T19:48:56.253Z,12.23
2022-11-16T19:51:25.859Z,12.73
2022-11-16T19:53:53.186Z,17.20
2022-11-16T19:56:21.237Z,15.77
2022-11-16T19:58:48.012Z,13.20
2022-11-16T20:01:16.538Z,14.20
2022-11-16T20:03:43.651Z,12.18
2022-11-16T20:06:12.358Z,13.00
2022-11-16T20:08:41.686Z,11.93
2022-11-16T20:11:12.947Z,13.35
2022-11-16T20:13:39.888Z,11.75
2022-11-16T20:16:08.147Z,11.15
2022-11-16T20:18:34.823Z,10.73
2022-11-16T20:21:01.724Z,12.95
2022-11-16T20:23:28.681Z,12.15
2022-11-16T20:25:56.913Z,14.18
2022-11-16T20:28:23.536Z,11.35
2022-11-16T20:30:50.117Z,11.63
2022-11-16T20:33:16.911Z,12.82
2022-11-16T20:35:43.536Z,9.65
2022-11-16T20:38:10.091Z,10.85
2022-11-16T20:40:36.899Z,14.57
2022-11-16T20:43:04.857Z,11.95
2022-11-16T20:45:33.231Z,11.88
2022-11-16T20:47:59.956Z,10.85
2022-11-16T20:50:26.520Z,12.13
2022-11-16T20:52:53.104Z,11.85
2022-11-16T20:55:19.742Z,12.60
2022-11-16T20:57:46.579Z,13.32
2022-11-16T21:00:16.392Z,12.82
2022-11-16T21:02:43.002Z,13.40
2022-11-16T21:05:09.637Z,10.25
2022-11-16T21:07:36.271Z,12.68
2022-11-16T21:10:03.196Z,11.73
2022-11-16T21:12:29.948Z,13.18
2022-11-16T21:14:56.567Z,12.52
2022-11-16T21:17:24.536Z,12.88
2022-11-16T21:20:20.011Z,13.45
2022-11-16T21:22:37.794Z,11.95
2022-11-16T21:25:04.833Z,15.25
2022-11-16T21:27:31.451Z,14.15
2022-11-16T21:29:58.161Z,13.57
2022-11-16T21:32:26.221Z,17.17
2022-11-16T21:34:52.859Z,11.00
2022-11-16T21:37:19.680Z,13.60
2022-11-16T21:39:46.266Z,14.40
2022-11-16T21:42:12.848Z,14.95
2022-11-16T21:44:39.692Z,13.40
2022-11-16T21:47:06.237Z,13.90
2022-11-16T21:49:34.258Z,13.10
2022-11-16T21:52:00.800Z,14.68
2022-11-16T21:54:27.521Z,12.40
2022-11-16T21:56:54.102Z,15.05
2022-11-16T21:59:20.743Z,14.88
2022-11-16T22:01:47.585Z,13.43
2022-11-16T22:04:14.232Z,13.43
2022-11-16T22:06:42.345Z,12.23
2022-11-16T22:09:08.934Z,13.65
2022-11-16T22:11:35.844Z,11.98
2022-11-16T22:14:02.393Z,12.77
2022-11-16T22:16:29.265Z,14.73
2022-11-16T22:18:55.894Z,14.95
2022-11-16T22:21:22.522Z,10.30
2022-11-16T22:23:50.609Z,12.35
2022-11-16T22:26:17.668Z,9.85
2022-11-16T22:28:44.258Z,12.32
2022-11-16T22:31:12.040Z,12.50
2022-11-16T22:33:39.307Z,11.80
2022-11-16T22:36:06.644Z,13.02
2022-11-16T22:38:33.627Z,14.20
2022-11-16T22:41:01.594Z,11.95
2022-11-16T22:43:29.853Z,11.10
2022-11-16T22:45:57.665Z,13.45
2022-11-16T22:48:28.794Z,12.25
2022-11-16T22:51:01.889Z,11.45
2022-11-16T22:53:28.595Z,12.98
2022-11-16T22:55:55.215Z,11.57
2022-11-16T22:58:23.481Z,11.05
2022-11-16T23:00:51.623Z,10.32
2022-11-16T23:03:18.265Z,13.43
2022-11-16T23:05:44.889Z,13.82
2022-11-16T23:08:11.456Z,10.52
2022-11-16T23:10:38.068Z,12.18
2022-11-16T23:13:04.675Z,11.30
2022-11-16T23:15:32.624Z,11.57
2022-11-16T23:17:59.198Z,12.50
2022-11-16T23:20:25.828Z,13.27
2022-11-16T23:22:52.470Z,14.02
2022-11-16T23:25:19.181Z,11.65
2022-11-16T23:27:55.408Z,15.63
2022-11-16T23:30:22.365Z,13.13
2022-11-16T23:32:50.693Z,11.85
2022-11-16T23:35:18.004Z,12.90
2022-11-16T23:37:52.366Z,12.65
2022-11-16T23:40:19.018Z,13.43
2022-11-16T23:42:45.669Z,12.70
2022-11-16T23:45:12.390Z,11.93
2022-11-16T23:47:39.024Z,13.40
2022-11-16T23:50:07.694Z,14.70
2022-11-16T23:52:34.271Z,13.45
2022-11-16T23:55:00.881Z,13.30
2022-11-16T23:57:27.446Z,12.77
2022-11-16T23:59:54.065Z,14.20
